Seattle, Washington
Traffic Map
Current Weather Conditions
Seattle, Washington
Overcast Light Rain
Overcast
14°
Feels Like: 14°
Wind Chill: 14° Ceiling: 7000
Heat Index: 14° Visibility: 8mi
Dew Point: 12° Wind: 0mph
Humidity: 87% Direction: ° ()
Pressure: 29.3in Gusts: 0mph
Raw Report DataKBFI 252153Z 00000KT 8SM -RA OVC070 14/12 A2930 RMK AO2 SLP921 P0003 T01390117
Traffic Incident Summary
Active as of:
Severity:
Category:
InformationThere was an issue retrieving the traffic information for this location. Please try a different location or try again shortly.
Advertisements
Track Severe Weather on mobile